Time;durP1;ratioP1;P1;durP2;ratioP2;P2;SDS_P1;SDS_P2;PMS_P1;PMS_P2;Temp;Humidity;BMP_temperature;BMP_pressure;BME280_temperature;BME280_humidity;BME280_pressure;Samples;Min_cycle;Max_cycle;Signal;HPM_P1;HPM_P2
2023/06/14 00:02:08;;;;;;;11.75;5.82;;;;;;;18.33;54.08;100801.00;5035807;28;20037;-65
2023/06/14 00:04:34;;;;;;;8.75;5.22;;;;;;;18.31;53.91;100797.59;5033424;28;20041;-64
2023/06/14 00:07:00;;;;;;;7.93;4.85;;;;;;;18.29;53.91;100792.41;5036448;28;20067;-64
2023/06/14 00:09:25;;;;;;;6.85;4.75;;;;;;;18.26;53.81;100792.53;5035553;28;20137;-64
2023/06/14 00:11:51;;;;;;;11.55;5.70;;;;;;;18.25;54.04;100800.44;5038287;28;20147;-64
2023/06/14 00:14:16;;;;;;;6.38;5.13;;;;;;;18.19;54.39;100801.53;5037991;28;20040;-64
2023/06/14 00:16:42;;;;;;;6.55;4.80;;;;;;;18.16;54.12;100798.19;5018275;28;20037;-64
2023/06/14 00:19:10;;;;;;;7.82;5.18;;;;;;;18.09;54.08;100799.31;5037745;28;20128;-65
2023/06/14 00:21:36;;;;;;;8.10;4.68;;;;;;;18.05;54.17;100805.59;5034900;28;20828;-65
2023/06/14 00:24:01;;;;;;;6.18;5.00;;;;;;;18.01;54.39;100807.47;5040399;28;20528;-64
2023/06/14 00:26:27;;;;;;;9.02;5.28;;;;;;;17.98;54.34;100812.81;5036617;28;20083;-64
2023/06/14 00:28:54;;;;;;;6.97;4.85;;;;;;;17.95;54.06;100807.72;5034615;28;20112;-65
2023/06/14 00:31:19;;;;;;;7.60;5.68;;;;;;;17.92;54.31;100818.28;5037508;28;21056;-66
2023/06/14 00:33:45;;;;;;;6.68;5.22;;;;;;;17.88;54.04;100816.69;5012843;28;20038;-66
2023/06/14 00:36:10;;;;;;;7.18;5.60;;;;;;;17.83;54.56;100818.59;5037282;28;20035;-66
2023/06/14 00:38:35;;;;;;;5.70;4.63;;;;;;;17.80;54.96;100829.16;5038185;28;20825;-66
2023/06/14 00:41:01;;;;;;;6.72;4.88;;;;;;;17.75;54.83;100821.47;5035726;28;20099;-66
2023/06/14 00:43:26;;;;;;;6.30;5.18;;;;;;;17.71;55.20;100830.38;5037214;28;20044;-66
2023/06/14 00:45:52;;;;;;;6.95;5.43;;;;;;;17.67;55.18;100835.75;5041556;28;20179;-66
2023/06/14 00:48:17;;;;;;;5.82;4.50;;;;;;;17.62;55.24;100840.28;5033084;28;20091;-65
2023/06/14 00:50:45;;;;;;;5.57;4.43;;;;;;;17.57;55.50;100837.84;5031460;28;20698;-66
2023/06/14 00:53:15;;;;;;;5.80;4.70;;;;;;;17.51;55.50;100845.91;5035067;28;20127;-66
2023/06/14 00:55:40;;;;;;;6.25;5.18;;;;;;;17.49;55.52;100841.63;5034527;28;20037;-66
2023/06/14 00:58:06;;;;;;;5.75;4.75;;;;;;;17.46;55.68;100845.19;5034268;28;20044;-66
2023/06/14 01:00:31;;;;;;;9.02;5.60;;;;;;;17.42;55.66;100852.28;5035025;28;20930;-66
2023/06/14 01:02:57;;;;;;;8.50;6.20;;;;;;;17.42;56.22;100852.28;5032866;28;20626;-66
2023/06/14 01:05:23;;;;;;;7.70;5.57;;;;;;;17.39;56.51;100848.97;5038126;28;20171;-66
2023/06/14 01:08:21;;;;;;;6.70;5.38;;;;;;;17.34;56.82;100850.84;5034986;28;20071;-66
2023/06/14 01:11:04;;;;;;;7.65;5.38;;;;;;;17.30;56.82;100857.13;5018347;28;20053;-66
2023/06/14 01:13:34;;;;;;;5.65;5.05;;;;;;;17.25;57.13;100859.88;5034471;28;20156;-66
2023/06/14 01:16:01;;;;;;;10.65;5.03;;;;;;;17.21;57.51;100857.44;5030484;28;20037;-66
2023/06/14 01:18:29;;;;;;;6.25;5.07;;;;;;;17.16;58.24;100862.78;5033200;28;20096;-66
2023/06/14 01:20:55;;;;;;;7.13;5.22;;;;;;;17.12;58.23;100861.22;5038016;28;20045;-66
2023/06/14 01:23:23;;;;;;;6.32;5.10;;;;;;;17.09;58.16;100860.44;5034689;28;20091;-66
2023/06/14 01:25:52;;;;;;;6.93;4.95;;;;;;;17.05;57.74;100854.47;5037696;28;20494;-66
2023/06/14 01:28:20;;;;;;;7.28;5.03;;;;;;;17.01;58.03;100852.84;5035253;28;20840;-66
2023/06/14 01:30:53;;;;;;;6.78;5.40;;;;;;;16.99;57.87;100856.41;5033359;28;20052;-66
2023/06/14 01:33:20;;;;;;;7.95;6.03;;;;;;;16.95;58.40;100855.66;5031504;28;20111;-66
2023/06/14 01:35:48;;;;;;;8.05;5.40;;;;;;;16.91;58.27;100861.06;5036937;28;20163;-66
2023/06/14 01:38:14;;;;;;;6.50;5.30;;;;;;;16.88;58.85;100871.59;5037165;28;20044;-66
2023/06/14 01:40:44;;;;;;;8.02;5.45;;;;;;;16.81;59.23;100874.41;5033549;28;20036;-66
2023/06/14 01:43:11;;;;;;;5.97;5.13;;;;;;;16.78;59.25;100869.28;5037016;28;20052;-66
2023/06/14 01:45:38;;;;;;;7.95;5.95;;;;;;;16.77;59.24;100866.72;5032551;28;20045;-66
2023/06/14 01:48:04;;;;;;;7.82;5.72;;;;;;;16.77;59.01;100867.56;5035875;28;20732;-66
2023/06/14 01:50:31;;;;;;;6.75;5.72;;;;;;;16.75;59.49;100858.91;5037936;28;20083;-62
2023/06/14 01:52:56;;;;;;;8.20;6.35;;;;;;;16.75;59.33;100868.47;5035595;28;20044;-62
2023/06/14 01:55:21;;;;;;;7.03;5.97;;;;;;;16.73;59.88;100867.69;5033661;28;20033;-62
2023/06/14 01:57:47;;;;;;;6.63;5.28;;;;;;;16.69;59.78;100874.75;5030940;28;20128;-63
2023/06/14 02:00:14;;;;;;;8.70;5.53;;;;;;;16.66;59.81;100867.03;5034308;28;20017;-65
2023/06/14 02:02:40;;;;;;;7.78;5.75;;;;;;;16.64;59.73;100865.38;5034038;28;20041;-62
2023/06/14 02:05:05;;;;;;;7.32;5.00;;;;;;;16.60;59.99;100866.34;5041043;28;20094;-66
2023/06/14 02:07:31;;;;;;;6.65;5.28;;;;;;;16.56;59.99;100870.81;5037982;28;20049;-67
2023/06/14 02:09:56;;;;;;;5.57;5.00;;;;;;;16.50;60.61;100873.66;5037936;28;20044;-65
2023/06/14 02:12:22;;;;;;;6.32;5.00;;;;;;;16.46;61.19;100872.00;5020940;28;20036;-63
2023/06/14 02:14:48;;;;;;;6.15;4.97;;;;;;;16.42;61.04;100869.53;5020554;28;20479;-63
2023/06/14 02:17:13;;;;;;;8.10;5.45;;;;;;;16.42;61.04;100869.53;5036067;28;20136;-67
2023/06/14 02:19:39;;;;;;;8.75;6.25;;;;;;;16.40;61.47;100872.19;5038976;28;20029;-63
2023/06/14 02:22:04;;;;;;;7.28;5.65;;;;;;;16.37;61.24;100868.81;5038616;28;20752;-62
2023/06/14 02:24:30;;;;;;;14.85;6.55;;;;;;;16.30;61.93;100884.66;5038093;28;20048;-66
2023/06/14 02:26:55;;;;;;;7.60;5.30;;;;;;;16.26;61.80;100882.22;5038482;28;20028;-63
2023/06/14 02:29:20;;;;;;;9.32;6.07;;;;;;;16.20;61.88;100880.63;5037712;28;20111;-62
2023/06/14 02:31:48;;;;;;;8.60;5.55;;;;;;;16.16;62.22;100881.63;5036685;28;20043;-62
2023/06/14 02:34:14;;;;;;;7.78;5.70;;;;;;;16.11;62.29;100873.09;5038481;28;20047;-61
2023/06/14 02:36:41;;;;;;;7.20;6.18;;;;;;;16.11;62.59;100877.44;5035964;28;20100;-61
2023/06/14 02:39:09;;;;;;;8.35;6.03;;;;;;;16.08;62.65;100880.13;5037372;28;20444;-61
2023/06/14 02:41:34;;;;;;;9.25;5.93;;;;;;;16.05;63.19;100875.00;5039088;28;20078;-61
2023/06/14 02:44:00;;;;;;;7.55;6.32;;;;;;;16.01;62.63;100879.44;5036970;28;20049;-62
2023/06/14 02:46:25;;;;;;;7.90;6.28;;;;;;;15.98;62.98;100883.91;5034817;28;20061;-62
2023/06/14 02:48:50;;;;;;;6.70;6.00;;;;;;;15.94;63.50;100883.13;5031383;28;20057;-66
2023/06/14 02:51:16;;;;;;;9.55;6.30;;;;;;;15.92;63.46;100884.06;5014793;28;20118;-66
2023/06/14 02:53:41;;;;;;;10.40;6.03;;;;;;;15.89;63.29;100879.78;5038415;28;20021;-67
2023/06/14 02:56:06;;;;;;;8.25;6.15;;;;;;;15.88;63.91;100888.50;5038329;28;20032;-67
2023/06/14 02:58:32;;;;;;;9.50;6.60;;;;;;;15.87;63.82;100897.25;5033939;28;20510;-66
2023/06/14 03:01:03;;;;;;;7.97;5.88;;;;;;;15.84;64.29;100894.72;5036977;28;20045;-67
2023/06/14 03:03:29;;;;;;;5.50;4.93;;;;;;;15.80;64.57;100887.00;5034229;28;20078;-67
2023/06/14 03:05:55;;;;;;;7.57;5.80;;;;;;;15.79;64.25;100895.75;5029826;28;20032;-67
2023/06/14 03:08:20;;;;;;;7.65;4.85;;;;;;;15.77;64.71;100890.56;5032165;28;20037;-67
2023/06/14 03:10:46;;;;;;;6.30;5.30;;;;;;;15.75;64.27;100893.22;5031101;28;20040;-67
2023/06/14 03:13:22;;;;;;;8.70;6.43;;;;;;;15.74;64.38;100896.72;5033461;28;20036;-67
2023/06/14 03:15:50;;;;;;;9.57;6.88;;;;;;;15.78;64.33;100891.44;5035244;28;20651;-67
2023/06/14 03:18:19;;;;;;;10.13;6.95;;;;;;;15.78;63.99;100892.28;5029875;28;20306;-67
2023/06/14 03:20:45;;;;;;;7.65;6.20;;;;;;;15.74;64.14;100891.50;5039153;28;20058;-66
2023/06/14 03:23:11;;;;;;;8.45;5.55;;;;;;;15.72;63.95;100893.31;5036682;28;20029;-67
2023/06/14 03:25:38;;;;;;;7.95;5.70;;;;;;;15.73;64.10;100894.16;5038520;28;20033;-65
2023/06/14 03:28:04;;;;;;;8.98;6.30;;;;;;;15.73;64.41;100897.59;5036132;28;20691;-65
2023/06/14 03:30:31;;;;;;;6.60;5.50;;;;;;;15.73;64.45;100908.03;5031702;28;20029;-66
2023/06/14 03:32:57;;;;;;;11.05;5.75;;;;;;;15.71;64.60;100909.84;5035774;28;20028;-62
2023/06/14 03:35:23;;;;;;;8.85;6.50;;;;;;;15.75;63.92;100902.78;5038339;28;20526;-61
2023/06/14 03:37:49;;;;;;;6.55;5.72;;;;;;;15.74;63.96;100894.13;5023405;28;20401;-61
2023/06/14 03:40:16;;;;;;;7.63;6.25;;;;;;;15.76;63.85;100894.09;5023400;28;20120;-61
2023/06/14 03:42:41;;;;;;;8.30;6.10;;;;;;;15.79;63.36;100893.16;5037453;28;20598;-61
2023/06/14 03:45:07;;;;;;;9.68;6.43;;;;;;;15.82;63.29;100893.06;5040980;28;20113;-61
2023/06/14 03:47:33;;;;;;;9.35;6.45;;;;;;;15.84;62.91;100891.25;5038719;28;20041;-61
2023/06/14 03:50:00;;;;;;;10.27;6.45;;;;;;;15.86;62.66;100881.63;5014189;28;20049;-61
2023/06/14 03:52:26;;;;;;;9.55;6.55;;;;;;;15.90;62.61;100884.13;5022498;28;20040;-61
2023/06/14 03:54:52;;;;;;;11.48;6.78;;;;;;;15.91;62.43;100880.59;5029730;28;20371;-61
2023/06/14 03:57:19;;;;;;;7.40;5.90;;;;;;;15.94;62.64;100884.91;5032897;28;20033;-65
2023/06/14 03:59:44;;;;;;;10.93;7.05;;;;;;;15.99;62.56;100883.88;5029838;28;20021;-65
2023/06/14 04:02:10;;;;;;;9.68;6.63;;;;;;;15.99;62.38;100894.28;5036476;28;20041;-65
2023/06/14 04:04:36;;;;;;;9.23;6.35;;;;;;;16.01;62.22;100889.03;5036252;28;20570;-65
2023/06/14 04:07:03;;;;;;;7.47;6.07;;;;;;;16.06;62.60;100894.94;5038860;28;20048;-65
2023/06/14 04:09:29;;;;;;;10.82;7.10;;;;;;;16.07;62.55;100897.53;5036865;28;20046;-65
2023/06/14 04:11:55;;;;;;;8.43;7.15;;;;;;;16.10;62.55;100897.44;5038206;28;20029;-65
2023/06/14 04:14:20;;;;;;;9.50;6.47;;;;;;;16.09;62.70;100906.16;5035510;28;20238;-65
2023/06/14 04:16:47;;;;;;;8.80;7.22;;;;;;;16.07;62.73;100909.72;5039377;28;20677;-66
2023/06/14 04:19:12;;;;;;;10.43;6.90;;;;;;;16.08;63.71;100934.91;5036944;28;20041;-65
2023/06/14 04:21:38;;;;;;;9.85;6.53;;;;;;;16.08;64.15;100945.31;5036413;28;20092;-66
2023/06/14 04:24:04;;;;;;;12.13;7.10;;;;;;;16.09;64.49;100947.88;5037992;28;20037;-66
2023/06/14 04:26:29;;;;;;;8.70;6.35;;;;;;;16.15;64.48;100944.22;5036582;28;20673;-65
2023/06/14 04:28:56;;;;;;;7.90;7.10;;;;;;;16.20;64.29;100951.06;5036236;28;20164;-65
2023/06/14 04:31:25;;;;;;;13.63;6.57;;;;;;;16.29;64.25;100949.94;5016706;28;20079;-65
2023/06/14 04:33:52;;;;;;;11.25;5.78;;;;;;;16.39;64.25;100943.53;5031955;28;20032;-65
2023/06/14 04:36:18;;;;;;;10.43;7.28;;;;;;;16.51;63.78;100931.88;5041160;28;20071;-61
2023/06/14 04:38:46;;;;;;;11.25;7.00;;;;;;;16.61;63.07;100928.09;5038020;28;20378;-62
2023/06/14 04:41:11;;;;;;;11.75;6.88;;;;;;;16.72;62.04;100912.97;5039182;28;20040;-63
2023/06/14 04:43:37;;;;;;;11.55;6.68;;;;;;;16.82;61.70;100914.44;5044757;28;20129;-63
2023/06/14 04:46:05;;;;;;;7.82;6.53;;;;;;;16.92;62.07;100921.03;5037273;28;20045;-63
2023/06/14 04:48:31;;;;;;;9.35;6.28;;;;;;;16.98;60.70;100910.41;5036536;28;20053;-63
2023/06/14 04:50:57;;;;;;;14.43;6.50;;;;;;;17.04;60.29;100901.53;5039474;28;20036;-63
2023/06/14 04:53:23;;;;;;;10.32;6.78;;;;;;;17.11;59.89;100885.59;5041059;28;20533;-62
2023/06/14 04:55:48;;;;;;;10.20;6.38;;;;;;;17.18;59.33;100889.72;5034440;28;20037;-62
2023/06/14 04:58:14;;;;;;;11.27;5.78;;;;;;;17.29;59.91;100897.19;5040581;28;20044;-62
2023/06/14 05:00:39;;;;;;;11.77;7.18;;;;;;;17.39;60.29;100911.66;5034104;28;20048;-62
2023/06/14 05:03:05;;;;;;;10.25;7.35;;;;;;;17.50;60.72;100920.00;5040159;28;20485;-67
2023/06/14 05:05:31;;;;;;;10.07;6.93;;;;;;;17.57;59.59;100897.13;5028232;28;20040;-66
2023/06/14 05:07:57;;;;;;;17.33;6.95;;;;;;;17.63;59.70;100902.13;5040567;28;20037;-65
2023/06/14 05:10:24;;;;;;;9.45;5.80;;;;;;;17.72;59.01;100894.78;5038480;28;20041;-65
2023/06/14 05:12:49;;;;;;;8.35;6.00;;;;;;;17.79;58.46;100895.44;5033714;28;20045;-65
2023/06/14 05:15:15;;;;;;;10.45;5.80;;;;;;;17.85;57.00;100869.97;5040561;28;20700;-64
2023/06/14 05:17:41;;;;;;;12.30;5.65;;;;;;;17.92;57.03;100874.06;5028874;28;20379;-65
2023/06/14 05:20:08;;;;;;;10.13;5.70;;;;;;;17.94;54.71;100855.69;5027170;28;20140;-63
2023/06/14 05:22:33;;;;;;;9.82;5.60;;;;;;;18.02;54.96;100855.41;5024983;28;20052;-63
2023/06/14 05:24:58;;;;;;;12.77;6.00;;;;;;;18.05;54.35;100852.69;5026454;28;20057;-63
2023/06/14 05:27:25;;;;;;;8.85;5.28;;;;;;;18.09;53.38;100843.78;5032222;28;20031;-63
2023/06/14 05:29:50;;;;;;;10.85;4.90;;;;;;;18.14;53.46;100858.41;5034124;28;20099;-63
2023/06/14 05:32:15;;;;;;;13.10;5.30;;;;;;;18.17;53.58;100858.28;5034771;28;20029;-63
2023/06/14 05:34:42;;;;;;;10.55;6.05;;;;;;;18.27;53.10;100850.94;5038859;28;20086;-63
2023/06/14 05:37:07;;;;;;;7.93;5.43;;;;;;;18.28;52.44;100850.91;5037970;28;20056;-63
2023/06/14 05:39:32;;;;;;;6.20;4.93;;;;;;;18.29;51.96;100849.13;5037891;28;20061;-63
2023/06/14 05:41:58;;;;;;;6.72;5.10;;;;;;;18.29;52.07;100859.59;5022542;28;20119;-63
2023/06/14 05:44:23;;;;;;;13.32;5.30;;;;;;;18.30;51.82;100853.44;5036595;28;20045;-62
2023/06/14 05:46:48;;;;;;;6.60;5.10;;;;;;;18.34;52.01;100858.53;5032403;28;20160;-62
2023/06/14 05:49:14;;;;;;;9.10;4.78;;;;;;;18.40;51.80;100862.66;5038326;28;20049;-62
2023/06/14 05:51:39;;;;;;;8.15;4.70;;;;;;;18.47;52.20;100870.19;5034913;28;20036;-61
2023/06/14 05:54:05;;;;;;;10.68;4.80;;;;;;;18.57;51.77;100865.47;5036733;28;20039;-62
2023/06/14 05:56:30;;;;;;;7.22;4.85;;;;;;;18.64;51.74;100872.13;5037175;28;20537;-61
2023/06/14 05:58:55;;;;;;;7.65;4.50;;;;;;;18.72;51.18;100867.47;5029425;28;20037;-61
2023/06/14 06:01:21;;;;;;;7.55;4.63;;;;;;;18.82;50.97;100870.59;5033262;28;20080;-61
2023/06/14 06:03:46;;;;;;;6.78;4.47;;;;;;;18.91;50.10;100860.59;5034233;28;20037;-61
2023/06/14 06:06:12;;;;;;;6.00;4.32;;;;;;;18.96;49.90;100861.28;5016876;28;20731;-64
2023/06/14 06:08:38;;;;;;;7.85;4.60;;;;;;;19.03;49.71;100865.31;5036773;28;20075;-64
2023/06/14 06:11:03;;;;;;;12.35;4.63;;;;;;;19.12;49.49;100868.50;5017465;28;20053;-63
2023/06/14 06:13:29;;;;;;;10.98;4.68;;;;;;;19.23;49.56;100875.00;5017137;28;20057;-64
2023/06/14 06:15:54;;;;;;;12.43;4.40;;;;;;;19.34;49.52;100870.16;5015850;28;20041;-64
2023/06/14 06:18:19;;;;;;;16.23;4.90;;;;;;;19.37;49.53;100869.16;5026377;28;20067;-64
2023/06/14 06:20:45;;;;;;;8.40;4.32;;;;;;;19.52;48.33;100853.63;5033544;28;20028;-63
2023/06/14 06:23:10;;;;;;;7.55;4.07;;;;;;;19.70;46.80;100846.72;5034932;28;20171;-63
2023/06/14 06:25:35;;;;;;;10.77;3.65;;;;;;;19.73;45.94;100845.72;5038001;28;20037;-64
2023/06/14 06:28:01;;;;;;;15.15;3.78;;;;;;;19.86;46.56;100860.88;5035137;28;20060;-64
2023/06/14 06:30:26;;;;;;;5.13;3.70;;;;;;;19.92;45.51;100855.34;5034276;28;20029;-62
2023/06/14 06:32:52;;;;;;;10.90;4.32;;;;;;;20.04;45.96;100864.41;5033756;28;20702;-63
2023/06/14 06:35:18;;;;;;;7.72;3.67;;;;;;;20.17;44.78;100841.94;5034433;28;20581;-63
2023/06/14 06:37:43;;;;;;;4.90;3.97;;;;;;;20.21;45.25;100848.78;5036445;28;20037;-62
2023/06/14 06:40:10;;;;;;;6.88;3.50;;;;;;;20.27;44.28;100856.38;5035329;28;20049;-66
2023/06/14 06:42:36;;;;;;;8.70;3.80;;;;;;;20.37;44.18;100854.13;5032155;28;20101;-66
2023/06/14 06:45:01;;;;;;;6.50;3.70;;;;;;;20.42;44.25;100865.28;5036703;28;20076;-66
2023/06/14 06:47:27;;;;;;;8.27;3.55;;;;;;;20.43;44.22;100875.72;5031477;28;20076;-63
2023/06/14 06:49:52;;;;;;;6.20;3.53;;;;;;;20.55;43.74;100877.75;5035043;28;20045;-63
2023/06/14 06:52:18;;;;;;;6.82;3.75;;;;;;;20.60;43.69;100878.38;5033736;28;20391;-65
2023/06/14 06:54:43;;;;;;;6.95;3.17;;;;;;;20.67;43.65;100878.94;5033895;28;20049;-62
2023/06/14 06:57:09;;;;;;;6.72;3.42;;;;;;;20.71;44.06;100891.06;5036011;28;20082;-62
2023/06/14 06:59:34;;;;;;;8.90;3.70;;;;;;;20.75;43.61;100887.31;5030847;28;20095;-63
2023/06/14 07:02:00;;;;;;;5.72;3.65;;;;;;;20.81;43.80;100887.03;5020071;28;20784;-63
2023/06/14 07:04:25;;;;;;;4.97;3.40;;;;;;;20.85;43.35;100885.13;5033056;28;20099;-66
2023/06/14 07:06:51;;;;;;;4.93;3.30;;;;;;;20.92;44.15;100899.66;5034622;28;20206;-61
2023/06/14 07:09:16;;;;;;;6.00;3.03;;;;;;;20.98;43.65;100888.84;5034851;28;20037;-62
2023/06/14 07:11:43;;;;;;;9.95;3.78;;;;;;;21.09;43.83;100883.91;5017710;28;20051;-62
2023/06/14 07:14:09;;;;;;;8.90;3.80;;;;;;;21.09;43.65;100887.41;5034038;28;20367;-62
2023/06/14 07:16:34;;;;;;;7.05;3.20;;;;;;;21.18;43.75;100883.47;5029308;28;20566;-61
2023/06/14 07:19:02;;;;;;;6.63;3.00;;;;;;;21.25;44.08;100892.75;5018962;28;20045;-62
2023/06/14 07:21:27;;;;;;;4.72;3.08;;;;;;;21.33;43.24;100887.09;5033188;28;20087;-62
2023/06/14 07:23:54;;;;;;;5.80;3.47;;;;;;;21.37;43.01;100876.34;5037355;28;20112;-62
2023/06/14 07:26:19;;;;;;;7.22;3.75;;;;;;;21.46;43.13;100888.19;5015214;28;21814;-62
2023/06/14 07:28:46;;;;;;;6.88;3.00;;;;;;;21.54;42.15;100878.09;5033785;28;20051;-62
2023/06/14 07:31:12;;;;;;;4.40;3.30;;;;;;;21.56;42.43;100886.78;5027973;28;20602;-63
2023/06/14 07:33:38;;;;;;;5.10;2.85;;;;;;;21.53;42.30;100887.78;5029542;28;20037;-61
2023/06/14 07:36:03;;;;;;;6.05;3.10;;;;;;;21.61;41.78;100890.06;5028130;28;20048;-62
2023/06/14 07:38:29;;;;;;;5.68;3.13;;;;;;;21.65;41.66;100881.06;5032188;28;20422;-62
2023/06/14 07:40:54;;;;;;;5.88;3.13;;;;;;;21.64;41.47;100880.19;5033684;28;20037;-61
2023/06/14 07:43:20;;;;;;;5.18;2.80;;;;;;;21.58;41.26;100882.31;5029485;28;20576;-61
2023/06/14 07:45:45;;;;;;;4.93;3.33;;;;;;;21.64;42.07;100890.72;5016503;28;20033;-62
2023/06/14 07:48:11;;;;;;;3.40;3.00;;;;;;;21.64;42.32;100892.53;5028158;28;20505;-63
2023/06/14 07:50:36;;;;;;;7.57;3.35;;;;;;;21.69;41.90;100883.47;5036094;28;20111;-63
2023/06/14 07:53:02;;;;;;;7.28;3.30;;;;;;;21.71;41.64;100878.97;5032379;28;20406;-63
2023/06/14 07:55:27;;;;;;;8.23;2.97;;;;;;;21.73;41.63;100889.41;5032069;28;20044;-63
2023/06/14 07:57:53;;;;;;;6.28;3.00;;;;;;;21.83;41.99;100885.34;5029922;28;20056;-63
2023/06/14 08:00:20;;;;;;;7.88;3.25;;;;;;;22.03;41.59;100887.78;5032992;28;20032;-64
2023/06/14 08:02:45;;;;;;;5.28;2.88;;;;;;;21.95;39.87;100866.28;5035601;28;20060;-64
2023/06/14 08:05:11;;;;;;;3.72;2.25;;;;;;;21.97;41.24;100888.09;5033883;28;20147;-63
2023/06/14 08:07:37;;;;;;;5.43;2.70;;;;;;;21.99;40.45;100867.84;5049686;28;20064;-64
2023/06/14 08:10:04;;;;;;;12.52;3.33;;;;;;;22.04;40.96;100881.59;5036229;28;20095;-63
2023/06/14 08:12:29;;;;;;;5.75;2.50;;;;;;;22.10;39.06;100861.97;5037173;28;20029;-66
2023/06/14 08:14:55;;;;;;;5.00;2.78;;;;;;;22.27;38.46;100851.38;5039389;28;20029;-66
2023/06/14 08:17:20;;;;;;;5.32;2.22;;;;;;;22.36;38.19;100853.50;5041511;28;20041;-65
2023/06/14 08:19:45;;;;;;;7.10;2.25;;;;;;;22.55;39.69;100872.66;5036366;28;20033;-66
2023/06/14 08:22:12;;;;;;;3.72;1.70;;;;;;;22.70;37.79;100858.63;5038177;28;20053;-66
2023/06/14 08:24:37;;;;;;;5.75;1.70;;;;;;;22.71;36.54;100856.84;5036360;28;20051;-66
2023/06/14 08:27:03;;;;;;;4.15;1.98;;;;;;;22.77;37.52;100864.38;5037380;28;20036;-66
2023/06/14 08:29:30;;;;;;;3.22;1.50;;;;;;;22.87;35.73;100847.09;5019609;28;20071;-65
2023/06/14 08:31:56;;;;;;;4.28;1.75;;;;;;;22.85;36.31;100863.00;5036140;28;20041;-65
2023/06/14 08:34:23;;;;;;;5.07;1.95;;;;;;;22.96;35.23;100854.47;5035930;28;20041;-64
2023/06/14 08:36:50;;;;;;;3.90;1.60;;;;;;;22.81;34.49;100848.31;5037827;28;20037;-65
2023/06/14 08:39:15;;;;;;;2.92;1.90;;;;;;;22.79;35.42;100862.50;5036685;28;20032;-65
2023/06/14 08:41:45;;;;;;;3.88;1.40;;;;;;;22.91;34.41;100848.63;5040792;28;20028;-64
2023/06/14 08:44:11;;;;;;;6.05;1.40;;;;;;;22.91;33.57;100846.00;5037935;28;20029;-65
2023/06/14 08:46:37;;;;;;;3.78;1.50;;;;;;;22.93;33.01;100841.47;5032365;28;20044;-64
2023/06/14 08:49:06;;;;;;;3.33;1.90;;;;;;;23.07;34.07;100859.97;5031549;28;20033;-64
2023/06/14 08:51:36;;;;;;;3.85;1.65;;;;;;;23.23;34.38;100863.44;5037253;28;20164;-66
2023/06/14 08:54:03;;;;;;;5.72;2.05;;;;;;;23.48;34.41;100862.84;5033873;28;20056;-67
2023/06/14 08:56:30;;;;;;;5.70;1.58;;;;;;;23.57;33.10;100842.97;5031781;28;20128;-66
2023/06/14 08:58:57;;;;;;;6.20;2.00;;;;;;;23.65;32.27;100843.34;5032382;28;20147;-66
2023/06/14 09:01:24;;;;;;;2.65;1.35;;;;;;;23.64;32.55;100849.53;5034348;28;20126;-66
2023/06/14 09:03:50;;;;;;;7.43;1.90;;;;;;;23.61;32.41;100853.22;5035218;28;20036;-66
2023/06/14 09:06:19;;;;;;;4.05;1.90;;;;;;;23.75;32.80;100860.31;5035247;28;20032;-65
2023/06/14 09:08:48;;;;;;;3.42;2.13;;;;;;;23.70;31.78;100831.56;5031989;28;20029;-66
2023/06/14 09:11:15;;;;;;;3.42;1.90;;;;;;;23.63;31.43;100842.59;5031599;28;20048;-65
2023/06/14 09:13:41;;;;;;;4.15;1.63;;;;;;;23.51;31.94;100852.09;5038152;28;20033;-66
2023/06/14 09:16:07;;;;;;;2.00;1.67;;;;;;;23.62;31.99;100846.16;5037641;28;20546;-66
2023/06/14 09:18:38;;;;;;;2.72;1.65;;;;;;;23.82;32.21;100848.44;5020365;28;20029;-67
2023/06/14 09:21:08;;;;;;;3.92;1.67;;;;;;;23.84;31.79;100857.09;5037034;28;20031;-66
2023/06/14 09:23:43;;;;;;;4.38;1.90;;;;;;;23.90;32.33;100854.91;5035220;28;20061;-66
2023/06/14 09:26:09;;;;;;;5.00;2.17;;;;;;;23.70;31.69;100862.38;5037751;28;20940;-66
2023/06/14 09:28:35;;;;;;;2.17;1.40;;;;;;;23.64;32.17;100868.03;5032693;28;20041;-66
2023/06/14 09:31:01;;;;;;;2.38;1.45;;;;;;;23.51;32.45;100869.72;5035605;28;20095;-67
2023/06/14 09:33:27;;;;;;;2.95;1.80;;;;;;;23.69;34.64;100889.72;5039875;28;20033;-67
2023/06/14 09:35:54;;;;;;;3.15;2.28;;;;;;;23.75;32.36;100870.88;5037621;28;20045;-64
2023/06/14 09:38:20;;;;;;;5.70;2.00;;;;;;;23.82;31.93;100875.69;5029709;28;20033;-64
2023/06/14 09:40:45;;;;;;;2.40;1.80;;;;;;;23.69;31.99;100863.34;5017296;28;20037;-64
2023/06/14 09:43:11;;;;;;;5.97;2.00;;;;;;;23.79;32.66;100872.38;5017783;28;20033;-61
2023/06/14 09:45:39;;;;;;;2.88;1.80;;;;;;;24.01;32.05;100864.88;5032529;28;20033;-63
2023/06/14 09:48:07;;;;;;;4.50;1.73;;;;;;;24.14;32.02;100860.50;5033188;28;20035;-65
2023/06/14 09:50:32;;;;;;;2.88;1.88;;;;;;;24.41;33.42;100893.09;5036537;28;20394;-65
2023/06/14 09:53:10;;;;;;;7.50;2.45;;;;;;;24.62;32.12;100864.44;5033283;28;20037;-65
2023/06/14 09:55:37;;;;;;;2.80;1.75;;;;;;;24.78;31.79;100864.34;5032991;28;20033;-65
2023/06/14 09:58:05;;;;;;;3.63;1.92;;;;;;;24.65;30.90;100839.59;5028517;28;20041;-65
2023/06/14 10:00:33;;;;;;;2.55;1.50;;;;;;;24.41;31.18;100853.47;5033536;28;20441;-64
2023/06/14 10:03:03;;;;;;;4.97;1.75;;;;;;;24.29;31.41;100858.69;5034093;28;20036;-65
2023/06/14 10:05:29;;;;;;;3.80;1.70;;;;;;;24.29;32.06;100861.31;5035801;28;20037;-67
2023/06/14 10:08:05;;;;;;;2.90;1.80;;;;;;;24.49;32.98;100868.84;5034114;28;20398;-67
2023/06/14 10:10:31;;;;;;;4.00;1.70;;;;;;;24.78;31.76;100865.19;5012123;28;20045;-67
2023/06/14 10:12:56;;;;;;;6.18;1.60;;;;;;;24.88;32.12;100866.25;5028105;28;20055;-65
2023/06/14 10:15:46;;;;;;;3.35;1.52;;;;;;;25.03;32.44;100859.09;5036346;28;20297;-67
2023/06/14 10:18:25;;;;;;;2.30;1.75;;;;;;;25.16;31.23;100852.06;5036215;28;20028;-66
2023/06/14 10:21:05;;;;;;;5.70;2.03;;;;;;;25.20;31.00;100842.13;5038336;28;20019;-67
2023/06/14 10:23:35;;;;;;;4.53;2.03;;;;;;;25.14;30.59;100851.31;5032748;28;20041;-67
2023/06/14 10:26:01;;;;;;;3.03;1.83;;;;;;;25.29;31.05;100855.59;5034407;28;20037;-66
2023/06/14 10:28:26;;;;;;;2.38;1.48;;;;;;;25.20;30.22;100850.91;5030871;28;20039;-67
2023/06/14 10:31:13;;;;;;;3.35;1.85;;;;;;;25.14;30.89;100843.38;5033765;28;20059;-67
2023/06/14 10:33:58;;;;;;;2.33;1.70;;;;;;;25.46;30.08;100841.22;5032620;28;20037;-67
2023/06/14 10:36:34;;;;;;;2.17;1.70;;;;;;;25.39;30.36;100842.56;5029890;28;20163;-66
2023/06/14 10:39:29;;;;;;;3.72;1.85;;;;;;;25.11;29.49;100840.94;5034254;28;20040;-65
2023/06/14 10:41:56;;;;;;;;;;;;;;;25.27;29.81;100841.59;5024536;28;20041;-67
2023/06/14 10:44:21;;;;;;;6.60;2.00;;;;;;;24.99;31.07;100860.28;5033301;28;19920;-66
2023/06/14 10:46:52;;;;;;;2.97;1.80;;;;;;;24.88;31.04;100873.34;5027755;28;20045;-65
2023/06/14 10:49:19;;;;;;;4.97;2.00;;;;;;;24.51;31.54;100862.50;5036913;28;20039;-65
2023/06/14 10:51:49;;;;;;;2.65;1.60;;;;;;;24.16;31.48;100869.19;5041568;28;20513;-66
2023/06/14 10:54:15;;;;;;;4.15;1.92;;;;;;;24.48;31.18;100856.56;5038158;28;20032;-65
2023/06/14 10:56:48;;;;;;;2.85;1.85;;;;;;;24.89;30.23;100846.81;5032369;28;20099;-65
2023/06/14 10:59:14;;;;;;;4.65;1.80;;;;;;;25.14;30.37;100843.38;5036015;28;20249;-61
2023/06/14 11:01:55;;;;;;;7.53;1.60;;;;;;;25.27;29.73;100836.28;5030935;28;20083;-62
2023/06/14 11:04:20;;;;;;;2.78;2.00;;;;;;;25.40;30.28;100841.63;5033299;28;20033;-61
2023/06/14 11:06:52;;;;;;;4.55;1.83;;;;;;;25.67;31.88;100858.28;5030598;28;20519;-62
2023/06/14 11:09:23;;;;;;;5.07;1.98;;;;;;;26.11;32.21;100869.28;5029296;28;20091;-62
2023/06/14 11:11:50;;;;;;;3.75;1.60;;;;;;;26.37;29.24;100832.94;5030309;28;20028;-61
2023/06/14 11:14:16;;;;;;;3.05;1.73;;;;;;;26.09;29.52;100826.13;5033259;28;20033;-65
2023/06/14 11:16:41;;;;;;;3.17;1.65;;;;;;;25.45;30.01;100835.06;5036921;28;20029;-65
2023/06/14 11:19:07;;;;;;;2.83;1.95;;;;;;;25.30;31.12;100859.91;5032002;28;20039;-65
2023/06/14 11:21:33;;;;;;;3.40;1.63;;;;;;;25.50;32.10;100861.25;5016026;28;20041;-63
2023/06/14 11:23:58;;;;;;;2.15;1.55;;;;;;;25.42;31.67;100856.47;5035018;28;20029;-63